Time;durP1;ratioP1;P1;durP2;ratioP2;P2;SDS_P1;SDS_P2;PMS_P1;PMS_P2;Temp;Humidity;BMP_temperature;BMP_pressure;BME280_temperature;BME280_humidity;BME280_pressure;Samples;Min_cycle;Max_cycle;Signal;HPM_P1;HPM_P2
2022/08/11 00:02:48;;;;;;;10.80;5.10;;;;;;;;;;5108895;28;20039;-74
2022/08/11 00:05:16;;;;;;;8.65;4.32;;;;;;;;;;5101117;28;20051;-74
2022/08/11 00:07:47;;;;;;;9.13;5.28;;;;;;;;;;5111037;28;20051;-74
2022/08/11 00:10:18;;;;;;;9.40;5.35;;;;;;;;;;5111693;28;20040;-73
2022/08/11 00:12:49;;;;;;;9.32;5.68;;;;;;;;;;5111378;28;20035;-73
2022/08/11 00:15:16;;;;;;;8.88;5.90;;;;;;;;;;5114717;28;20067;-73
2022/08/11 00:17:43;;;;;;;10.70;5.82;;;;;;;;;;5129491;28;20039;-73
2022/08/11 00:20:11;;;;;;;7.97;5.38;;;;;;;;;;5124592;28;20050;-74
2022/08/11 00:22:39;;;;;;;9.68;5.80;;;;;;;;;;5114046;28;20508;-74
2022/08/11 00:25:12;;;;;;;8.80;5.40;;;;;;;;;;5112502;28;20099;-73
2022/08/11 00:27:39;;;;;;;8.48;5.40;;;;;;;;;;5107451;28;20067;-73
2022/08/11 00:30:06;;;;;;;9.38;5.60;;;;;;;;;;5114390;28;20040;-73
2022/08/11 00:32:33;;;;;;;7.95;5.22;;;;;;;;;;5129419;28;20543;-73
2022/08/11 00:34:59;;;;;;;10.27;5.78;;;;;;;;;;5127424;28;20036;-73
2022/08/11 00:37:26;;;;;;;11.07;6.15;;;;;;;;;;5130062;28;20064;-75
2022/08/11 00:39:53;;;;;;;9.68;6.03;;;;;;;;;;5121674;28;20040;-73
2022/08/11 00:42:38;;;;;;;11.55;6.80;;;;;;;;;;5119749;28;20064;-74
2022/08/11 00:45:10;;;;;;;8.52;5.78;;;;;;;;;;5116272;28;20069;-74
2022/08/11 00:47:44;;;;;;;9.35;6.03;;;;;;;;;;5129548;28;20032;-74
2022/08/11 00:50:18;;;;;;;8.77;6.10;;;;;;;;;;5117907;28;20033;-74
2022/08/11 00:53:03;;;;;;;8.18;6.50;;;;;;;;;;5115141;28;20043;-73
2022/08/11 00:55:48;;;;;;;9.82;6.65;;;;;;;;;;5097461;28;20074;-73
2022/08/11 00:58:23;;;;;;;12.10;7.20;;;;;;;;;;5105509;28;20044;-74
2022/08/11 01:01:01;;;;;;;10.05;6.90;;;;;;;;;;5098295;28;20047;-74
2022/08/11 01:03:40;;;;;;;11.57;6.80;;;;;;;;;;5108058;28;20036;-73
2022/08/11 01:06:21;;;;;;;11.65;7.30;;;;;;;;;;5091088;28;20060;-73
2022/08/11 01:08:59;;;;;;;10.57;7.43;;;;;;;;;;5097521;28;20066;-73
2022/08/11 01:11:42;;;;;;;8.27;7.20;;;;;;;;;;5105535;28;20055;-73
2022/08/11 01:14:08;;;;;;;11.07;7.47;;;;;;;;;;5115472;28;20048;-73
2022/08/11 01:16:37;;;;;;;9.63;7.18;;;;;;;;;;5113055;28;20127;-74
2022/08/11 01:19:33;;;;;;;10.23;8.02;;;;;;;;;;5102051;28;20055;-73
2022/08/11 01:22:18;;;;;;;11.98;7.25;;;;;;;;;;5099419;28;20054;-73
2022/08/11 01:25:02;;;;;;;11.20;6.80;;;;;;;;;;5103501;28;20096;-74
2022/08/11 01:27:45;;;;;;;8.70;6.60;;;;;;;;;;5100158;28;20043;-73
2022/08/11 01:30:17;;;;;;;9.75;6.78;;;;;;;;;;5095460;28;20086;-74
2022/08/11 01:32:46;;;;;;;11.00;7.00;;;;;;;;;;5098224;28;20045;-73
2022/08/11 01:35:31;;;;;;;9.10;6.88;;;;;;;;;;5098277;28;20036;-74
2022/08/11 01:38:16;;;;;;;11.43;8.07;;;;;;;;;;5098243;28;20104;-75
2022/08/11 01:41:01;;;;;;;12.15;8.38;;;;;;;;;;5108320;28;20036;-74
2022/08/11 01:46:27;;;;;;;12.75;8.13;;;;;;;;;;5110999;28;20048;-74
2022/08/11 01:49:08;;;;;;;11.10;9.23;;;;;;;;;;5096119;28;20063;-73
2022/08/11 01:51:34;;;;;;;12.98;9.18;;;;;;;;;;5091238;28;20036;-73
2022/08/11 01:54:00;;;;;;;13.77;8.75;;;;;;;;;;5093505;28;20043;-73
2022/08/11 01:56:29;;;;;;;12.68;9.05;;;;;;;;;;5124335;28;20081;-74
2022/08/11 01:59:32;;;;;;;11.25;8.40;;;;;;;;;;5102254;28;20051;-74
2022/08/11 02:02:16;;;;;;;13.80;9.32;;;;;;;;;;5050522;28;20096;-73
2022/08/11 02:04:48;;;;;;;11.75;8.93;;;;;;;;;;5061104;28;20054;-73
2022/08/11 02:07:17;;;;;;;11.15;8.23;;;;;;;;;;5047514;28;20042;-74
2022/08/11 02:09:49;;;;;;;13.77;10.20;;;;;;;;;;5038095;28;20046;-73
2022/08/11 02:12:34;;;;;;;15.25;9.98;;;;;;;;;;5067756;28;20043;-74
2022/08/11 02:15:03;;;;;;;13.65;10.18;;;;;;;;;;5061583;28;20053;-74
2022/08/11 02:17:39;;;;;;;12.23;9.63;;;;;;;;;;5051475;28;20132;-74
2022/08/11 02:26:15;;;;;;;12.90;10.35;;;;;;;;;;5034609;28;20054;-73
2022/08/11 02:28:50;;;;;;;14.63;10.18;;;;;;;;;;5054815;28;20049;-73
2022/08/11 02:34:20;;;;;;;13.82;10.40;;;;;;;;;;5051074;28;20049;-74
2022/08/11 02:37:05;;;;;;;14.20;10.45;;;;;;;;;;5101773;28;20052;-73
2022/08/11 02:39:38;;;;;;;14.63;11.10;;;;;;;;;;5131156;28;20043;-74
2022/08/11 02:42:22;;;;;;;17.80;13.38;;;;;;;;;;5132851;28;20043;-74
2022/08/11 02:44:51;;;;;;;16.38;11.98;;;;;;;;;;5122612;28;20039;-74
2022/08/11 02:47:32;;;;;;;17.30;13.18;;;;;;;;;;5110714;28;20035;-74
2022/08/11 02:49:58;;;;;;;;;;;;;;;;;;5124665;28;20085;-73
2022/08/11 02:52:24;;;;;;;18.08;13.50;;;;;;;;;;5123984;28;19919;-74
2022/08/11 02:55:00;;;;;;;17.25;13.30;;;;;;;;;;5122035;28;20059;-74
2022/08/11 02:57:26;;;;;;;17.00;13.82;;;;;;;;;;5126724;28;20044;-73
2022/08/11 02:59:55;;;;;;;17.00;14.48;;;;;;;;;;5126600;28;20031;-73
2022/08/11 03:02:40;;;;;;;22.95;15.18;;;;;;;;;;5133465;28;20061;-74
2022/08/11 03:05:07;;;;;;;17.55;14.32;;;;;;;;;;5131451;28;20032;-73
2022/08/11 03:07:37;;;;;;;16.25;13.10;;;;;;;;;;5134041;28;20035;-73
2022/08/11 03:10:08;;;;;;;16.17;13.37;;;;;;;;;;5129730;28;20071;-74
2022/08/11 03:18:33;;;;;;;11.57;9.68;;;;;;;;;;5115760;28;20028;-73
2022/08/11 03:21:02;;;;;;;11.82;8.73;;;;;;;;;;5122487;28;20046;-73
2022/08/11 03:23:37;;;;;;;11.45;10.00;;;;;;;;;;5100955;28;20052;-74
2022/08/11 03:26:14;;;;;;;12.25;10.32;;;;;;;;;;5127766;28;20070;-73
2022/08/11 03:29:06;;;;;;;13.48;11.27;;;;;;;;;;5101683;28;20039;-74
2022/08/11 03:31:43;;;;;;;14.07;10.68;;;;;;;;;;5112786;28;20090;-75
2022/08/11 03:34:13;;;;;;;15.45;12.02;;;;;;;;;;5116250;28;20044;-73
2022/08/11 03:36:53;;;;;;;14.00;12.00;;;;;;;;;;5124413;28;20065;-73
2022/08/11 03:39:25;;;;;;;15.45;12.90;;;;;;;;;;5134237;28;20043;-73
2022/08/11 03:41:51;;;;;;;12.15;10.52;;;;;;;;;;5122470;28;20044;-73
2022/08/11 03:44:17;;;;;;;17.13;14.48;;;;;;;;;;5125430;28;20052;-73
2022/08/11 03:47:02;;;;;;;17.08;14.00;;;;;;;;;;5134782;28;20032;-73
2022/08/11 03:49:34;;;;;;;23.95;19.15;;;;;;;;;;5124731;28;20031;-73
2022/08/11 03:52:13;;;;;;;22.85;17.40;;;;;;;;;;5116169;28;20074;-73
2022/08/11 03:54:57;;;;;;;20.75;18.13;;;;;;;;;;5118132;28;20082;-73
2022/08/11 03:57:49;;;;;;;24.10;20.65;;;;;;;;;;5119093;28;20083;-74
2022/08/11 04:00:23;;;;;;;22.48;18.98;;;;;;;;;;5116011;28;20062;-73
2022/08/11 04:02:52;;;;;;;26.02;19.33;;;;;;;;;;5135602;28;20038;-73
2022/08/11 04:05:27;;;;;;;23.23;19.63;;;;;;;;;;5121397;28;20032;-73
2022/08/11 04:07:59;;;;;;;26.48;21.58;;;;;;;;;;5125035;28;20043;-73
2022/08/11 04:10:25;;;;;;;24.10;19.83;;;;;;;;;;5129167;28;20100;-72
2022/08/11 04:12:57;;;;;;;25.13;21.38;;;;;;;;;;5115867;28;20020;-74
2022/08/11 04:18:30;;;;;;;20.38;18.17;;;;;;;;;;5117098;28;20091;-73
2022/08/11 04:21:20;;;;;;;23.13;19.42;;;;;;;;;;5120130;28;20035;-73
2022/08/11 04:23:46;;;;;;;22.23;19.08;;;;;;;;;;5116165;28;20110;-72
2022/08/11 04:26:25;;;;;;;21.35;19.17;;;;;;;;;;5127583;28;20047;-73
2022/08/11 04:29:10;;;;;;;22.85;19.30;;;;;;;;;;5130599;28;20051;-74
2022/08/11 04:31:54;;;;;;;21.83;19.48;;;;;;;;;;5120494;28;20024;-74
2022/08/11 04:34:20;;;;;;;22.55;19.10;;;;;;;;;;5119295;28;20032;-74
2022/08/11 04:39:49;;;;;;;22.25;18.67;;;;;;;;;;5115960;28;20139;-73
2022/08/11 04:45:25;;;;;;;20.95;17.48;;;;;;;;;;5119839;28;20024;-74
2022/08/11 05:02:31;;;;;;;18.27;16.35;;;;;;;;;;5138290;28;20043;-74
2022/08/11 05:05:31;;;;;;;18.08;15.85;;;;;;;;;;5135066;27;20027;-73
2022/08/11 05:07:57;;;;;;;16.92;14.30;;;;;;;;;;5120354;28;20040;-74
2022/08/11 05:10:41;;;;;;;16.75;15.05;;;;;;;;;;5129306;27;20080;-74
2022/08/11 05:35:49;;;;;;;12.68;10.13;;;;;;;;;;5133368;28;20024;-74
2022/08/11 05:57:46;;;;;;;11.57;7.05;;;;;;;;;;5114003;28;20672;-77
2022/08/11 06:00:14;;;;;;;7.70;6.32;;;;;;;;;;5102174;28;20187;-75
2022/08/11 06:02:41;;;;;;;10.43;7.18;;;;;;;;;;5091836;28;20044;-76
2022/08/11 06:05:07;;;;;;;9.10;6.32;;;;;;;;;;5105956;28;20035;-75
2022/08/11 06:07:34;;;;;;;10.70;7.05;;;;;;;;;;5118553;28;20039;-77
2022/08/11 06:10:00;;;;;;;9.68;6.57;;;;;;;;;;5117117;28;20123;-76
2022/08/11 06:12:30;;;;;;;8.48;6.60;;;;;;;;;;5104360;28;20504;-75
2022/08/11 06:14:56;;;;;;;;;;;;;;;;;;5092023;28;20052;-76
2022/08/11 06:17:23;;;;;;;11.48;7.13;;;;;;;;;;5106885;28;19994;-75
2022/08/11 06:19:51;;;;;;;12.70;7.00;;;;;;;;;;5106267;28;20052;-76
2022/08/11 06:22:19;;;;;;;12.32;7.20;;;;;;;;;;5098249;28;20036;-78
2022/08/11 06:24:51;;;;;;;10.63;6.78;;;;;;;;;;5088130;28;20056;-78
2022/08/11 06:27:21;;;;;;;9.82;6.65;;;;;;;;;;5115175;28;20055;-76
2022/08/11 06:29:49;;;;;;;12.27;6.88;;;;;;;;;;5117711;28;20043;-77
2022/08/11 06:32:15;;;;;;;12.18;6.93;;;;;;;;;;5116742;28;20035;-77
2022/08/11 06:34:51;;;;;;;10.80;7.18;;;;;;;;;;5124899;28;20062;-78
2022/08/11 06:37:20;;;;;;;10.32;6.78;;;;;;;;;;5116840;27;20055;-76
2022/08/11 06:40:16;;;;;;;14.00;7.30;;;;;;;;;;5129305;28;20054;-77
2022/08/11 06:42:45;;;;;;;11.45;6.45;;;;;;;;;;5103759;27;20044;-78
2022/08/11 06:45:26;;;;;;;11.87;6.13;;;;;;;;;;5127529;27;20066;-78
2022/08/11 06:47:53;;;;;;;11.73;6.13;;;;;;;;;;5129272;28;20054;-76
2022/08/11 06:53:09;;;;;;;9.70;6.35;;;;;;;;;;5118999;27;20039;-78
2022/08/11 07:01:10;;;;;;;18.33;6.10;;;;;;;;;;5094641;28;20067;-78
2022/08/11 07:03:38;;;;;;;15.13;6.30;;;;;;;;;;5118920;27;20043;-77
2022/08/11 07:06:09;;;;;;;11.68;5.47;;;;;;;;;;5111172;28;20099;-78
2022/08/11 07:17:12;;;;;;;12.82;5.10;;;;;;;;;;5124454;28;20044;-78
2022/08/11 07:30:48;;;;;;;11.30;4.82;;;;;;;;;;5126993;27;20064;-76
2022/08/11 07:33:19;;;;;;;12.27;4.50;;;;;;;;;;5118331;27;20044;-77
2022/08/11 07:35:45;;;;;;;;;;;;;;;;;;5128501;27;20020;-76
2022/08/11 07:38:17;;;;;;;10.80;4.45;;;;;;;;;;5125554;27;19926;-76
2022/08/11 07:40:45;;;;;;;9.70;4.07;;;;;;;;;;5123382;27;20027;-77
2022/08/11 07:43:12;;;;;;;9.02;3.90;;;;;;;;;;5120651;28;20052;-76
2022/08/11 07:54:05;;;;;;;8.25;3.55;;;;;;;;;;5130667;27;20039;-76
2022/08/11 07:56:33;;;;;;;8.43;3.60;;;;;;;;;;5136995;28;20047;-75
2022/08/11 08:18:22;;;;;;;6.97;2.90;;;;;;;;;;5123994;27;20024;-76
2022/08/11 08:20:48;;;;;;;6.97;2.55;;;;;;;;;;5120817;27;20046;-75
2022/08/11 08:23:16;;;;;;;6.20;2.50;;;;;;;;;;5134014;27;20079;-75
2022/08/11 08:25:43;;;;;;;7.35;2.75;;;;;;;;;;5132492;28;20031;-76
2022/08/11 08:28:12;;;;;;;7.88;2.60;;;;;;;;;;5128407;27;20032;-75
2022/08/11 08:30:54;;;;;;;18.30;4.75;;;;;;;;;;5119442;28;20036;-74
2022/08/11 08:33:31;;;;;;;9.38;2.42;;;;;;;;;;5119451;27;20043;-75
2022/08/11 08:36:10;;;;;;;15.23;5.10;;;;;;;;;;5114726;28;20108;-76
2022/08/11 08:38:38;;;;;;;9.02;3.72;;;;;;;;;;5121088;28;20036;-76
2022/08/11 08:41:05;;;;;;;9.18;2.50;;;;;;;;;;5115484;27;20051;-73
2022/08/11 08:43:32;;;;;;;14.88;4.20;;;;;;;;;;5099717;28;20040;-75
2022/08/11 08:45:58;;;;;;;8.57;2.75;;;;;;;;;;5104502;28;20047;-80
2022/08/11 08:48:26;;;;;;;9.02;2.55;;;;;;;;;;5103882;28;20044;-75
2022/08/11 08:53:51;;;;;;;7.75;2.10;;;;;;;;;;5095327;28;20494;-75
2022/08/11 08:56:18;;;;;;;14.33;2.60;;;;;;;;;;5080057;28;20064;-77
2022/08/11 08:58:47;;;;;;;11.25;2.17;;;;;;;;;;5098298;28;20310;-78
2022/08/11 09:01:14;;;;;;;10.88;2.17;;;;;;;;;;5090557;28;20500;-75
2022/08/11 09:03:41;;;;;;;5.07;1.95;;;;;;;;;;5089242;28;20035;-76
2022/08/11 09:06:07;;;;;;;7.00;1.63;;;;;;;;;;5100888;28;20044;-76
2022/08/11 09:08:34;;;;;;;5.03;1.70;;;;;;;;;;5099028;28;20064;-75
2022/08/11 09:13:46;;;;;;;5.72;1.77;;;;;;;;;;5101934;28;20079;-76
2022/08/11 09:16:13;;;;;;;7.20;1.80;;;;;;;;;;5101055;28;20040;-76
2022/08/11 09:18:43;;;;;;;4.68;1.40;;;;;;;;;;5102042;28;20098;-76
2022/08/11 09:21:10;;;;;;;10.02;1.42;;;;;;;;;;5083550;28;20076;-74
2022/08/11 09:29:07;;;;;;;6.40;1.75;;;;;;;;;;5086699;28;20070;-74
2022/08/11 09:31:33;;;;;;;4.45;1.48;;;;;;;;;;5098756;28;20043;-73
2022/08/11 09:34:00;;;;;;;5.25;1.52;;;;;;;;;;5096502;28;20082;-76
2022/08/11 09:41:58;;;;;;;4.25;1.50;;;;;;;;;;5080508;28;20051;-74
2022/08/11 09:47:14;;;;;;;6.28;1.40;;;;;;;;;;5119731;28;20071;-74
2022/08/11 09:49:42;;;;;;;6.22;1.50;;;;;;;;;;5107679;28;20042;-75
2022/08/11 09:52:09;;;;;;;6.32;1.40;;;;;;;;;;5099561;28;20044;-75
2022/08/11 09:54:35;;;;;;;5.32;1.60;;;;;;;;;;5107641;28;20066;-74
2022/08/11 09:59:47;;;;;;;3.95;1.25;;;;;;;;;;5125109;27;20405;-75
2022/08/11 10:02:13;;;;;;;6.55;1.27;;;;;;;;;;5102209;28;20082;-74
2022/08/11 10:04:47;;;;;;;6.03;1.50;;;;;;;;;;5070452;28;20037;-74
2022/08/11 10:07:14;;;;;;;5.25;1.45;;;;;;;;;;5111041;28;20042;-75
2022/08/11 10:09:43;;;;;;;5.70;1.30;;;;;;;;;;5093255;28;20512;-74
2022/08/11 10:12:16;;;;;;;5.70;1.40;;;;;;;;;;5109907;28;20137;-73
2022/08/11 10:20:36;;;;;;;5.43;1.40;;;;;;;;;;5033720;28;20049;-74
2022/08/11 10:28:34;;;;;;;5.45;1.52;;;;;;;;;;5040598;28;20061;-74
2022/08/11 10:34:02;;;;;;;7.22;1.30;;;;;;;;;;5049989;28;20731;-75
2022/08/11 10:36:33;;;;;;;5.00;1.65;;;;;;;;;;5037408;28;20073;-76
2022/08/11 10:38:59;;;;;;;8.25;1.45;;;;;;;;;;5048453;28;20096;-75
2022/08/11 10:44:14;;;;;;;6.70;1.52;;;;;;;;;;5034638;28;20042;-74
2022/08/11 10:49:26;;;;;;;7.70;1.38;;;;;;;;;;5028900;28;20080;-74
2022/08/11 11:00:14;;;;;;;4.55;1.27;;;;;;;;;;5098442;28;20055;-75
2022/08/11 11:02:40;;;;;;;3.85;1.27;;;;;;;;;;5118700;27;20490;-74
2022/08/11 11:05:15;;;;;;;4.38;1.45;;;;;;;;;;5111427;27;20095;-74
2022/08/11 11:07:52;;;;;;;9.73;1.75;;;;;;;;;;5124672;28;20044;-75
2022/08/11 11:10:20;;;;;;;3.13;1.33;;;;;;;;;;5112343;28;20051;-76
2022/08/11 11:18:18;;;;;;;3.80;1.30;;;;;;;;;;5117209;28;20027;-75
2022/08/11 11:20:46;;;;;;;6.85;1.60;;;;;;;;;;5117203;28;20055;-75
2022/08/11 11:23:18;;;;;;;5.20;1.30;;;;;;;;;;5116435;28;21099;-75
2022/08/11 11:26:13;;;;;;;4.50;1.40;;;;;;;;;;5123804;28;20374;-75
2022/08/11 11:28:55;;;;;;;5.32;1.50;;;;;;;;;;5109566;28;20044;-74
2022/08/11 11:31:24;;;;;;;4.10;1.40;;;;;;;;;;5124069;28;20032;-76
2022/08/11 11:33:59;;;;;;;5.10;1.48;;;;;;;;;;5107310;28;20044;-76
2022/08/11 11:36:35;;;;;;;3.67;1.20;;;;;;;;;;5111779;28;20040;-75
2022/08/11 11:39:02;;;;;;;12.73;1.88;;;;;;;;;;5099225;28;20028;-76
2022/08/11 11:41:28;;;;;;;5.28;1.23;;;;;;;;;;5099085;28;20122;-75
2022/08/11 11:43:58;;;;;;;6.38;1.40;;;;;;;;;;5102825;28;20040;-76
2022/08/11 11:46:26;;;;;;;15.50;1.90;;;;;;;;;;5119633;28;20044;-75
2022/08/11 11:48:53;;;;;;;4.68;1.38;;;;;;;;;;5109357;28;20040;-73
2022/08/11 11:51:19;;;;;;;6.97;1.13;;;;;;;;;;5113010;28;20047;-73
2022/08/11 11:53:46;;;;;;;6.63;1.50;;;;;;;;;;5112389;28;20023;-72
2022/08/11 11:56:13;;;;;;;4.43;1.40;;;;;;;;;;5118387;28;20081;-73
2022/08/11 12:01:25;;;;;;;4.28;1.30;;;;;;;;;;5116328;28;20039;-73
2022/08/11 12:03:53;;;;;;;3.63;1.42;;;;;;;;;;5114827;28;20051;-74
2022/08/11 12:06:20;;;;;;;6.97;1.38;;;;;;;;;;5114803;28;20036;-73
2022/08/11 12:08:48;;;;;;;6.63;1.55;;;;;;;;;;5114607;28;20048;-73
2022/08/11 12:14:04;;;;;;;6.35;1.55;;;;;;;;;;5110844;28;20052;-72
2022/08/11 12:16:30;;;;;;;3.55;1.40;;;;;;;;;;5110460;28;20063;-72
2022/08/11 12:19:00;;;;;;;4.07;1.40;;;;;;;;;;5109973;28;20099;-73
2022/08/11 12:21:26;;;;;;;6.70;1.55;;;;;;;;;;5108843;28;20032;-74
2022/08/11 12:29:06;;;;;;;8.73;1.60;;;;;;;;;;5106065;28;20051;-74
2022/08/11 12:31:33;;;;;;;3.50;1.23;;;;;;;;;;5111922;28;20043;-73
2022/08/11 12:34:03;;;;;;;3.92;1.23;;;;;;;;;;5104188;28;20326;-73
2022/08/11 12:36:32;;;;;;;4.40;1.20;;;;;;;;;;5108073;28;20079;-73
2022/08/11 12:38:59;;;;;;;4.63;1.58;;;;;;;;;;5110307;28;20184;-73
2022/08/11 12:47:07;;;;;;;6.18;1.48;;;;;;;;;;5009266;28;20062;-73
2022/08/11 12:52:25;;;;;;;5.22;1.58;;;;;;;;;;5006746;28;20058;-74
2022/08/11 12:54:56;;;;;;;4.97;1.40;;;;;;;;;;5018589;28;20062;-73
2022/08/11 13:05:41;;;;;;;8.10;1.50;;;;;;;;;;5022437;28;20054;-73
2022/08/11 13:08:07;;;;;;;6.45;1.60;;;;;;;;;;5020912;28;20037;-74
2022/08/11 13:13:21;;;;;;;6.03;1.40;;;;;;;;;;5016649;28;20042;-72
2022/08/11 13:15:48;;;;;;;5.18;1.40;;;;;;;;;;5024215;28;20125;-73
2022/08/11 13:18:22;;;;;;;9.57;1.67;;;;;;;;;;5011602;28;20052;-73
2022/08/11 13:20:57;;;;;;;4.82;1.60;;;;;;;;;;5025726;28;20038;-73
2022/08/11 13:23:24;;;;;;;5.68;1.70;;;;;;;;;;5049514;28;20089;-73
2022/08/11 13:25:51;;;;;;;7.00;1.63;;;;;;;;;;5101649;28;20099;-74
2022/08/11 13:28:20;;;;;;;4.47;1.70;;;;;;;;;;5093370;28;20043;-74
2022/08/11 13:31:19;;;;;;;5.88;1.35;;;;;;;;;;5094737;28;20044;-72
2022/08/11 13:33:42;;;;;;;5.60;1.23;;;;;;;;;;5090274;28;20051;-75
2022/08/11 13:36:09;;;;;;;6.22;1.65;;;;;;;;;;5094437;28;20104;-74
2022/08/11 13:38:36;;;;;;;4.70;1.42;;;;;;;;;;5090672;28;20097;-73
2022/08/11 13:41:36;;;;;;;6.07;1.40;;;;;;;;;;5090398;28;20124;-74
2022/08/11 13:43:48;;;;;;;4.35;1.30;;;;;;;;;;5105124;28;20048;-74
2022/08/11 13:46:21;;;;;;;4.25;1.20;;;;;;;;;;5091631;28;20498;-72
2022/08/11 13:48:48;;;;;;;8.07;1.50;;;;;;;;;;5090881;28;20051;-73
2022/08/11 13:51:31;;;;;;;7.15;1.50;;;;;;;;;;5088310;28;20083;-73
2022/08/11 13:54:02;;;;;;;5.40;1.33;;;;;;;;;;5096819;28;20040;-73
2022/08/11 13:56:29;;;;;;;6.32;1.67;;;;;;;;;;5119404;28;20058;-72
2022/08/11 13:58:56;;;;;;;5.90;1.40;;;;;;;;;;5119964;28;20047;-73
2022/08/11 14:01:26;;;;;;;6.80;1.42;;;;;;;;;;5109038;28;20083;-73
2022/08/11 14:03:52;;;;;;;5.07;1.25;;;;;;;;;;5113984;28;20044;-74
2022/08/11 14:06:20;;;;;;;4.97;1.52;;;;;;;;;;5118455;28;20035;-73
2022/08/11 14:08:46;;;;;;;4.47;1.27;;;;;;;;;;5111672;28;20046;-74
2022/08/11 14:13:58;;;;;;;3.42;1.27;;;;;;;;;;5117701;28;20043;-73
2022/08/11 14:16:24;;;;;;;4.20;1.10;;;;;;;;;;5092644;28;20040;-74
2022/08/11 14:18:53;;;;;;;4.15;1.40;;;;;;;;;;5110480;28;20040;-73
2022/08/11 14:24:05;;;;;;;4.10;1.45;;;;;;;;;;5105205;28;20044;-73
2022/08/11 14:26:37;;;;;;;4.93;1.20;;;;;;;;;;5108483;28;20040;-75
2022/08/11 14:29:17;;;;;;;3.90;1.27;;;;;;;;;;5085225;28;20052;-74
2022/08/11 14:31:44;;;;;;;3.53;1.25;;;;;;;;;;5099157;28;20567;-73
2022/08/11 14:34:11;;;;;;;4.80;1.30;;;;;;;;;;5111602;28;20047;-73
2022/08/11 14:36:38;;;;;;;6.72;1.23;;;;;;;;;;5100867;28;20051;-72
2022/08/11 14:39:16;;;;;;;4.45;1.08;;;;;;;;;;5105306;28;20051;-74
2022/08/11 14:47:15;;;;;;;3.45;1.23;;;;;;;;;;5084118;28;20056;-74
2022/08/11 14:49:42;;;;;;;4.28;1.20;;;;;;;;;;5100606;28;20047;-73
2022/08/11 14:52:16;;;;;;;8.63;1.20;;;;;;;;;;5103489;28;20448;-74
2022/08/11 14:57:30;;;;;;;5.70;1.27;;;;;;;;;;5100919;28;20048;-74
2022/08/11 14:59:59;;;;;;;4.68;1.15;;;;;;;;;;5103424;28;20044;-74
2022/08/11 15:05:10;;;;;;;4.28;1.30;;;;;;;;;;5102786;28;20152;-73
2022/08/11 15:07:37;;;;;;;4.15;1.17;;;;;;;;;;5101183;28;20047;-73
2022/08/11 15:10:07;;;;;;;3.22;1.40;;;;;;;;;;5101278;28;20078;-73
2022/08/11 15:12:34;;;;;;;5.53;1.38;;;;;;;;;;5104517;28;20062;-74
2022/08/11 15:17:47;;;;;;;3.20;1.30;;;;;;;;;;5122377;28;20383;-74
2022/08/11 15:25:54;;;;;;;5.65;1.38;;;;;;;;;;5120859;28;20039;-73
2022/08/11 15:45:46;;;;;;;5.72;1.40;;;;;;;;;;5103362;28;20417;-73
2022/08/11 15:48:05;;;;;;;5.07;1.25;;;;;;;;;;5118567;28;20040;-73
2022/08/11 15:50:32;;;;;;;6.18;1.40;;;;;;;;;;5118942;28;20057;-72
2022/08/11 15:53:00;;;;;;;7.15;1.33;;;;;;;;;;5104262;28;20048;-73
2022/08/11 15:55:28;;;;;;;5.10;1.30;;;;;;;;;;5116485;28;20052;-73
2022/08/11 16:06:13;;;;;;;5.30;1.40;;;;;;;;;;5099403;28;20051;-75
2022/08/11 16:08:41;;;;;;;6.10;1.50;;;;;;;;;;5097332;28;20519;-73
2022/08/11 16:11:08;;;;;;;5.15;1.55;;;;;;;;;;5102025;28;20135;-73
2022/08/11 16:16:15;;;;;;;3.55;1.25;;;;;;;;;;5101763;28;20397;-73
2022/08/11 16:18:43;;;;;;;4.10;1.30;;;;;;;;;;5112614;28;20051;-74
2022/08/11 16:21:15;;;;;;;5.13;1.40;;;;;;;;;;5119094;28;20047;-73
2022/08/11 16:23:43;;;;;;;4.40;1.27;;;;;;;;;;5117141;28;20239;-74
2022/08/11 16:26:09;;;;;;;3.40;1.38;;;;;;;;;;5117806;28;20049;-74
2022/08/11 16:28:36;;;;;;;7.15;1.40;;;;;;;;;;5119201;28;20043;-72
2022/08/11 16:31:09;;;;;;;3.75;1.55;;;;;;;;;;5119298;28;20052;-74
2022/08/11 16:33:36;;;;;;;6.55;1.42;;;;;;;;;;5117119;28;20047;-75
2022/08/11 16:38:48;;;;;;;4.55;1.50;;;;;;;;;;5097231;28;20052;-74
2022/08/11 16:46:58;;;;;;;6.43;1.90;;;;;;;;;;5097995;28;20055;-73
2022/08/11 16:46:58;;;;;;;5.50;1.50;;;;;;;;;;5103299;28;20047;-73
2022/08/11 16:49:31;;;;;;;4.75;1.52;;;;;;;;;;5117398;28;20046;-73
2022/08/11 16:51:57;;;;;;;7.20;1.60;;;;;;;;;;5119115;28;20050;-73
2022/08/11 16:54:23;;;;;;;5.97;2.90;;;;;;;;;;5122322;28;20047;-71
2022/08/11 16:56:50;;;;;;;5.97;1.67;;;;;;;;;;5123250;28;20063;-73
2022/08/11 16:59:19;;;;;;;5.15;1.52;;;;;;;;;;5119294;28;20046;-74
2022/08/11 17:01:48;;;;;;;6.15;1.60;;;;;;;;;;5114718;28;20040;-72
2022/08/11 17:13:07;;;;;;;5.88;1.95;;;;;;;;;;5116998;28;20057;-73
2022/08/11 17:18:40;;;;;;;6.07;1.95;;;;;;;;;;5098875;28;20051;-74
2022/08/11 17:21:07;;;;;;;5.90;1.42;;;;;;;;;;5099531;28;20045;-73
2022/08/11 17:23:48;;;;;;;4.78;1.70;;;;;;;;;;5083747;28;20131;-73
2022/08/11 17:26:22;;;;;;;6.50;1.88;;;;;;;;;;5103107;28;20060;-74
2022/08/11 17:28:50;;;;;;;5.10;1.88;;;;;;;;;;5099943;28;20044;-76
2022/08/11 17:36:50;;;;;;;5.10;1.60;;;;;;;;;;5078629;28;20052;-73
2022/08/11 17:39:16;;;;;;;5.15;1.90;;;;;;;;;;5096705;28;20040;-74
2022/08/11 17:50:08;;;;;;;4.80;1.75;;;;;;;;;;5104124;28;20409;-73
2022/08/11 18:00:53;;;;;;;4.90;1.70;;;;;;;;;;5121447;28;20043;-74
2022/08/11 18:03:31;;;;;;;6.97;1.83;;;;;;;;;;5116322;28;20493;-75
2022/08/11 18:06:00;;;;;;;5.32;1.80;;;;;;;;;;5102383;28;20409;-74
